Time;durP1;ratioP1;P1;durP2;ratioP2;P2;SDS_P1;SDS_P2;PMS_P1;PMS_P2;Temp;Humidity;BMP_temperature;BMP_pressure;BME280_temperature;BME280_humidity;BME280_pressure;Samples;Min_cycle;Max_cycle;Signal;HPM_P1;HPM_P2
2022/12/26 00:00:59;;;;;;;165.88;31.48;;;8.00;99.90;;;;;;4980023;28;20029;-83
2022/12/26 00:03:25;;;;;;;94.13;26.15;;;8.00;99.90;;;;;;4997518;28;20042;-82
2022/12/26 00:05:51;;;;;;;197.38;31.52;;;8.00;99.90;;;;;;4995523;28;20629;-82
2022/12/26 00:08:17;;;;;;;129.90;26.20;;;8.00;99.90;;;;;;4981326;28;20030;-82
2022/12/26 00:10:42;;;;;;;162.70;28.15;;;8.00;99.90;;;;;;4981030;28;20100;-82
2022/12/26 00:13:08;;;;;;;173.60;28.40;;;8.00;99.90;;;;;;4980003;28;20026;-82
2022/12/26 00:15:34;;;;;;;169.50;30.50;;;8.00;99.90;;;;;;4976275;28;20519;-82
2022/12/26 00:17:59;;;;;;;131.68;24.65;;;8.00;99.90;;;;;;4996882;28;20040;-84
2022/12/26 00:20:25;;;;;;;130.60;26.33;;;8.00;99.90;;;;;;4980548;28;20452;-82
2022/12/26 00:22:51;;;;;;;148.48;28.02;;;8.10;99.90;;;;;;4981047;28;20045;-82
2022/12/26 00:25:16;;;;;;;114.72;26.70;;;8.10;99.90;;;;;;4996928;28;20395;-85
2022/12/26 00:27:42;;;;;;;135.95;27.85;;;8.10;99.90;;;;;;4996256;28;20530;-83
2022/12/26 00:30:08;;;;;;;162.48;29.25;;;8.10;99.90;;;;;;4980529;28;20048;-82
2022/12/26 00:32:34;;;;;;;140.27;27.88;;;8.10;99.90;;;;;;4980565;28;20044;-84
2022/12/26 00:34:59;;;;;;;178.48;29.08;;;8.10;99.90;;;;;;4988998;28;20408;-82
2022/12/26 00:37:25;;;;;;;173.15;30.70;;;8.10;99.90;;;;;;4978881;28;20045;-83
2022/12/26 00:39:50;;;;;;;146.18;28.40;;;8.10;99.90;;;;;;4980279;28;20040;-83
2022/12/26 00:42:16;;;;;;;156.30;30.42;;;8.10;99.90;;;;;;4981527;28;20524;-84
2022/12/26 00:44:42;;;;;;;194.80;30.58;;;8.10;99.90;;;;;;4996941;28;20058;-82
2022/12/26 00:47:07;;;;;;;152.80;30.08;;;8.10;99.90;;;;;;4978020;28;20480;-82
2022/12/26 00:49:33;;;;;;;181.55;29.77;;;8.10;99.90;;;;;;4994923;28;20534;-83
2022/12/26 00:51:58;;;;;;;110.30;28.23;;;8.10;99.90;;;;;;4980186;28;20108;-83
2022/12/26 00:54:24;;;;;;;163.38;30.42;;;8.10;99.90;;;;;;4996419;28;20037;-82
2022/12/26 00:56:49;;;;;;;156.65;30.98;;;8.10;99.90;;;;;;4994435;28;20042;-82
2022/12/26 00:59:15;;;;;;;154.75;30.52;;;8.10;99.90;;;;;;4979614;28;20559;-82
2022/12/26 01:01:41;;;;;;;143.77;30.35;;;8.10;99.90;;;;;;4996185;28;20029;-83
2022/12/26 01:04:06;;;;;;;194.02;32.88;;;8.20;99.90;;;;;;4995494;28;20392;-82
2022/12/26 01:06:32;;;;;;;146.05;29.80;;;8.20;99.90;;;;;;4974829;28;20065;-83
2022/12/26 01:08:58;;;;;;;149.57;28.90;;;8.20;99.90;;;;;;4995557;28;20393;-83
2022/12/26 01:11:39;;;;;;;134.52;27.45;;;8.20;99.90;;;;;;4979769;28;20471;-82
2022/12/26 01:14:16;;;;;;;203.88;30.73;;;8.20;99.90;;;;;;4979955;28;20504;-83
2022/12/26 01:16:44;;;;;;;122.68;28.75;;;8.20;99.90;;;;;;4993664;28;20033;-83
2022/12/26 01:19:11;;;;;;;159.50;27.65;;;8.20;99.90;;;;;;4987175;28;20042;-83
2022/12/26 01:21:37;;;;;;;138.95;28.65;;;8.30;99.90;;;;;;4979867;28;20040;-82
2022/12/26 01:24:03;;;;;;;146.65;28.95;;;8.30;99.90;;;;;;4995802;28;20034;-83
2022/12/26 01:26:29;;;;;;;109.07;27.85;;;8.30;99.90;;;;;;4993725;28;20042;-82
2022/12/26 01:28:54;;;;;;;88.75;26.70;;;8.20;99.90;;;;;;4987145;28;20488;-83
2022/12/26 01:31:21;;;;;;;115.22;29.00;;;8.30;99.90;;;;;;4978221;28;20034;-83
2022/12/26 01:33:47;;;;;;;142.15;29.75;;;8.30;99.90;;;;;;4999701;28;20046;-82
2022/12/26 01:36:14;;;;;;;105.43;28.10;;;8.30;99.90;;;;;;4984113;28;20450;-82
2022/12/26 01:38:40;;;;;;;93.22;27.95;;;8.30;99.90;;;;;;4979884;28;20038;-82
2022/12/26 01:41:15;;;;;;;98.47;29.02;;;8.20;99.90;;;;;;4994226;28;20091;-81
2022/12/26 01:44:24;;;;;;;84.90;28.10;;;8.20;99.90;;;;;;4979984;28;20428;-82
2022/12/26 01:46:51;;;;;;;172.63;32.58;;;8.30;99.90;;;;;;4966747;28;20034;-81
2022/12/26 01:49:36;;;;;;;142.07;31.05;;;8.30;99.90;;;;;;4993941;28;20484;-82
2022/12/26 01:52:08;;;;;;;94.47;29.23;;;8.30;99.90;;;;;;4995707;28;20037;-81
2022/12/26 01:54:37;;;;;;;84.82;29.92;;;8.30;99.90;;;;;;4976051;28;20052;-82
2022/12/26 01:57:08;;;;;;;149.55;31.88;;;8.30;99.90;;;;;;4974290;28;20095;-81
2022/12/26 01:59:37;;;;;;;118.80;29.35;;;8.30;99.90;;;;;;4978962;28;20041;-82
2022/12/26 02:02:04;;;;;;;133.30;31.23;;;8.30;99.90;;;;;;4979006;28;20045;-83
2022/12/26 02:07:23;;;;;;;169.23;33.03;;;8.30;99.90;;;;;;5000481;28;20046;-82
2022/12/26 02:09:49;;;;;;;120.15;30.52;;;8.30;99.90;;;;;;4969235;28;20046;-82
2022/12/26 02:12:20;;;;;;;160.60;32.67;;;8.30;99.90;;;;;;4995009;28;20042;-82
2022/12/26 02:14:46;;;;;;;105.28;30.30;;;8.30;99.90;;;;;;4976256;28;20072;-82
2022/12/26 02:17:13;;;;;;;126.65;31.52;;;8.30;99.90;;;;;;4977656;28;20133;-82
2022/12/26 02:20:09;;;;;;;122.20;31.05;;;8.30;99.90;;;;;;4978881;28;20061;-82
2022/12/26 02:22:53;;;;;;;138.40;32.60;;;8.30;99.90;;;;;;4970660;28;20046;-82
2022/12/26 02:25:47;;;;;;;121.25;31.65;;;8.40;99.90;;;;;;4972151;28;20037;-83
2022/12/26 02:28:35;;;;;;;101.60;32.05;;;8.40;99.90;;;;;;4971084;28;20034;-83
2022/12/26 02:31:02;;;;;;;94.65;30.73;;;8.40;99.90;;;;;;4978865;28;20045;-83
2022/12/26 02:33:57;;;;;;;143.27;34.35;;;8.40;99.90;;;;;;4972072;28;20112;-83
2022/12/26 02:36:48;;;;;;;100.82;31.65;;;8.50;99.90;;;;;;4948634;28;20080;-83
2022/12/26 02:39:41;;;;;;;113.80;32.55;;;8.50;99.90;;;;;;4970160;28;20133;-84
2022/12/26 02:42:15;;;;;;;165.98;32.88;;;8.50;99.90;;;;;;4999556;28;20488;-82
2022/12/26 02:47:55;;;;;;;116.75;35.17;;;8.50;99.90;;;;;;5000619;28;20107;-83
2022/12/26 03:14:34;;;;;;;145.95;37.45;;;8.60;99.90;;;;;;4998879;28;20096;-82
2022/12/26 03:17:20;;;;;;;120.97;36.22;;;8.60;99.90;;;;;;4984170;28;20411;-82
2022/12/26 03:20:01;;;;;;;170.50;37.45;;;8.60;99.90;;;;;;5000718;28;20551;-82
2022/12/26 03:22:33;;;;;;;150.43;37.53;;;8.60;99.90;;;;;;4984765;28;20045;-83
2022/12/26 03:27:53;;;;;;;132.35;35.55;;;8.50;99.90;;;;;;4999206;28;20518;-82
2022/12/26 03:33:03;;;;;;;86.10;31.60;;;8.50;99.90;;;;;;5001203;28;20049;-82
2022/12/26 03:35:32;;;;;;;140.65;34.85;;;8.50;99.90;;;;;;4982938;28;20048;-83
2022/12/26 03:38:12;;;;;;;107.93;32.70;;;8.50;99.90;;;;;;4981087;28;20052;-83
2022/12/26 04:19:27;;;;;;;89.65;28.40;;;8.40;99.90;;;;;;4988538;28;20053;-83
2022/12/26 04:44:44;;;;;;;67.53;26.60;;;8.10;99.90;;;;;;4998535;28;20103;-82
2022/12/26 04:47:10;;;;;;;85.38;28.52;;;8.00;99.90;;;;;;4998119;28;20468;-83
2022/12/26 04:52:53;;;;;;;70.90;27.83;;;8.10;99.90;;;;;;5006764;28;20077;-84
2022/12/26 04:55:14;;;;;;;69.45;27.45;;;8.10;99.90;;;;;;4981701;28;20049;-83
2022/12/26 04:57:39;;;;;;;103.38;29.70;;;8.10;99.90;;;;;;4999388;28;20069;-85
2022/12/26 05:00:05;;;;;;;57.38;28.13;;;8.10;99.90;;;;;;4980417;28;20038;-82
2022/12/26 05:10:43;;;;;;;72.28;28.90;;;8.00;99.90;;;;;;4996178;28;20049;-82
2022/12/26 05:13:09;;;;;;;71.15;29.50;;;7.90;99.90;;;;;;4980939;28;20053;-82
2022/12/26 05:28:40;;;;;;;59.58;28.67;;;7.90;99.90;;;;;;4980754;28;20044;-84
2022/12/26 05:29:27;;;;;;;60.90;29.08;;;8.00;99.90;;;;;;5000260;28;20045;-83
2022/12/26 05:31:52;;;;;;;69.68;29.65;;;8.00;99.90;;;;;;5001900;28;20038;-83
2022/12/26 05:34:20;;;;;;;63.83;29.98;;;8.00;99.90;;;;;;4987555;28;20044;-82
2022/12/26 05:36:49;;;;;;;78.28;31.63;;;8.00;99.90;;;;;;5000307;28;20550;-83
2022/12/26 05:39:15;;;;;;;69.82;29.60;;;8.00;99.90;;;;;;4982657;28;20089;-85
2022/12/26 05:41:41;;;;;;;64.38;30.77;;;8.10;99.90;;;;;;4996613;28;20088;-83
2022/12/26 05:44:07;;;;;;;52.85;28.45;;;8.00;99.90;;;;;;4983377;28;20038;-82
2022/12/26 05:46:34;;;;;;;53.40;27.45;;;8.00;99.90;;;;;;4999307;28;20030;-83
2022/12/26 05:49:00;;;;;;;58.45;28.25;;;8.00;99.90;;;;;;4977945;28;20048;-83
2022/12/26 05:51:25;;;;;;;67.10;30.20;;;8.10;99.90;;;;;;4986857;28;20125;-83
2022/12/26 05:53:51;;;;;;;58.70;28.65;;;8.10;99.90;;;;;;4999696;28;20519;-83
2022/12/26 05:56:18;;;;;;;61.67;28.83;;;8.10;99.90;;;;;;5002540;28;20073;-83
2022/12/26 05:58:44;;;;;;;52.80;27.48;;;8.10;99.90;;;;;;4998826;28;20137;-85
2022/12/26 06:01:18;;;;;;;49.10;27.00;;;8.10;99.90;;;;;;4979485;28;20065;-84
2022/12/26 06:03:49;;;;;;;50.25;27.75;;;8.10;99.90;;;;;;5011018;28;20084;-83
2022/12/26 06:06:15;;;;;;;46.33;26.65;;;8.10;99.90;;;;;;4981209;28;20030;-83
2022/12/26 06:08:41;;;;;;;41.28;24.77;;;8.10;99.90;;;;;;4980647;28;20404;-83
2022/12/26 06:11:09;;;;;;;48.35;25.92;;;8.10;99.90;;;;;;4996793;28;20033;-83
2022/12/26 06:13:35;;;;;;;42.92;25.27;;;8.20;99.90;;;;;;4979054;28;20116;-83
2022/12/26 06:16:09;;;;;;;48.33;25.98;;;8.20;99.90;;;;;;4995967;28;20041;-83
2022/12/26 06:18:35;;;;;;;54.53;26.35;;;8.20;99.90;;;;;;4981550;28;20030;-83
2022/12/26 06:21:14;;;;;;;39.35;24.50;;;8.20;99.90;;;;;;4982018;28;20081;-83
2022/12/26 06:23:40;;;;;;;48.72;24.50;;;8.20;99.90;;;;;;4980450;28;20072;-82
2022/12/26 06:26:08;;;;;;;42.50;24.10;;;8.20;99.90;;;;;;4998971;28;20034;-82
2022/12/26 06:28:35;;;;;;;47.00;25.13;;;8.20;99.90;;;;;;4975548;28;20038;-83
2022/12/26 06:31:05;;;;;;;38.63;22.15;;;8.10;99.90;;;;;;4980973;28;20034;-82
2022/12/26 06:33:31;;;;;;;50.13;23.95;;;8.10;99.90;;;;;;4979252;28;20034;-83
2022/12/26 06:36:09;;;;;;;42.58;23.30;;;8.10;99.90;;;;;;4981173;28;20049;-83
2022/12/26 06:38:35;;;;;;;36.83;21.90;;;8.00;99.90;;;;;;4981165;28;20042;-84
2022/12/26 06:41:04;;;;;;;38.78;22.15;;;8.00;99.90;;;;;;4980454;28;20034;-84
2022/12/26 06:43:29;;;;;;;39.22;23.33;;;8.10;99.90;;;;;;4997047;28;20025;-83
2022/12/26 06:45:56;;;;;;;38.08;22.48;;;8.00;99.90;;;;;;4982952;28;20053;-82
2022/12/26 06:48:22;;;;;;;40.28;22.85;;;8.00;99.90;;;;;;4981962;28;20100;-82
2022/12/26 06:50:48;;;;;;;31.65;21.38;;;8.00;99.90;;;;;;4981389;28;20496;-83
2022/12/26 06:53:14;;;;;;;34.40;22.25;;;8.00;99.90;;;;;;4977173;28;20041;-82
2022/12/26 06:55:39;;;;;;;38.47;21.58;;;7.90;99.90;;;;;;4999743;28;20037;-82
2022/12/26 06:58:05;;;;;;;37.08;22.38;;;7.90;99.90;;;;;;5000454;28;20076;-83
2022/12/26 07:00:30;;;;;;;41.90;22.67;;;7.80;99.90;;;;;;4997107;28;20037;-81
2022/12/26 07:02:56;;;;;;;35.25;23.25;;;7.80;99.90;;;;;;4980801;28;20328;-80
2022/12/26 07:05:21;;;;;;;39.08;23.67;;;7.70;99.90;;;;;;4980586;28;20126;-81
2022/12/26 07:07:51;;;;;;;37.03;23.55;;;7.70;99.90;;;;;;4998127;28;20092;-81
2022/12/26 07:10:18;;;;;;;36.30;24.38;;;7.70;99.90;;;;;;4982043;28;20124;-77
2022/12/26 07:12:44;;;;;;;40.38;25.35;;;7.70;99.90;;;;;;4981761;28;20037;-81
2022/12/26 07:15:10;;;;;;;48.58;25.45;;;7.70;99.90;;;;;;4976876;28;20128;-80
2022/12/26 07:17:36;;;;;;;42.85;26.38;;;7.70;99.90;;;;;;4982651;28;20100;-79
2022/12/26 07:20:03;;;;;;;42.13;25.85;;;7.60;99.90;;;;;;4995005;28;20132;-80
2022/12/26 07:22:29;;;;;;;49.38;27.08;;;7.60;99.90;;;;;;4972779;28;20034;-79
2022/12/26 07:24:55;;;;;;;44.53;25.42;;;7.60;99.90;;;;;;4993347;28;20042;-83
2022/12/26 07:27:20;;;;;;;43.45;25.42;;;7.60;99.90;;;;;;5000665;28;20515;-82
2022/12/26 07:29:46;;;;;;;44.10;26.27;;;7.60;99.90;;;;;;5000020;28;20045;-81
2022/12/26 07:32:12;;;;;;;41.53;26.02;;;7.60;99.90;;;;;;4989936;28;20080;-81
2022/12/26 07:34:37;;;;;;;40.63;24.55;;;7.70;99.90;;;;;;5005708;28;20277;-81
2022/12/26 07:37:03;;;;;;;44.15;25.30;;;7.60;99.90;;;;;;4988256;28;20129;-81
2022/12/26 07:39:29;;;;;;;35.65;23.75;;;7.70;99.90;;;;;;4986037;28;20036;-82
2022/12/26 07:41:57;;;;;;;35.42;22.67;;;7.60;99.90;;;;;;5008983;28;20124;-82
2022/12/26 07:44:31;;;;;;;36.47;22.58;;;7.60;99.90;;;;;;4990934;28;20041;-81
2022/12/26 07:46:58;;;;;;;33.83;21.63;;;7.60;99.90;;;;;;4986805;28;20042;-82
2022/12/26 07:49:24;;;;;;;31.60;21.38;;;7.60;99.90;;;;;;4988132;28;20046;-82
2022/12/26 07:51:50;;;;;;;34.72;21.42;;;7.60;99.90;;;;;;5010679;28;20046;-82
2022/12/26 07:54:17;;;;;;;30.38;19.70;;;7.60;99.90;;;;;;5012671;28;20403;-82
2022/12/26 07:56:42;;;;;;;32.10;20.90;;;7.50;99.90;;;;;;5013505;28;20124;-82
2022/12/26 07:59:13;;;;;;;29.70;18.23;;;7.60;99.90;;;;;;5012604;28;20045;-81
2022/12/26 08:01:39;;;;;;;25.13;18.88;;;7.60;99.90;;;;;;4997784;28;20046;-82
2022/12/26 08:04:05;;;;;;;27.20;18.15;;;7.60;99.90;;;;;;5013444;28;20068;-81
2022/12/26 08:06:30;;;;;;;23.95;17.17;;;7.60;99.90;;;;;;4998815;28;20083;-83
2022/12/26 08:08:56;;;;;;;24.02;16.40;;;7.60;99.90;;;;;;5001851;28;20034;-83
2022/12/26 08:11:23;;;;;;;18.77;15.35;;;7.60;99.90;;;;;;4998719;28;20044;-82
2022/12/26 08:13:49;;;;;;;22.48;15.63;;;7.60;99.90;;;;;;4986556;28;20122;-81
2022/12/26 08:16:15;;;;;;;23.05;15.70;;;7.70;99.90;;;;;;5014378;28;20026;-80
2022/12/26 08:18:41;;;;;;;21.83;15.20;;;7.70;99.90;;;;;;4993668;28;20045;-82
2022/12/26 08:21:08;;;;;;;18.55;13.30;;;7.70;99.90;;;;;;4996075;28;20048;-81
2022/12/26 08:23:33;;;;;;;21.98;14.35;;;7.70;99.90;;;;;;4984531;28;20084;-82
2022/12/26 08:26:07;;;;;;;21.50;14.05;;;7.90;99.90;;;;;;4983545;28;20041;-83
2022/12/26 08:28:34;;;;;;;22.13;12.50;;;7.80;99.90;;;;;;4999664;28;20489;-82
2022/12/26 08:31:03;;;;;;;23.48;12.43;;;7.90;99.90;;;;;;5001323;28;20504;-82
2022/12/26 08:33:29;;;;;;;17.02;12.32;;;8.00;99.90;;;;;;4999814;28;20053;-81
2022/12/26 08:35:54;;;;;;;17.10;11.73;;;8.10;99.90;;;;;;4992192;28;20037;-80
2022/12/26 08:38:20;;;;;;;19.23;12.18;;;8.20;99.90;;;;;;4982192;28;20161;-81
2022/12/26 08:40:54;;;;;;;16.23;11.25;;;8.30;99.90;;;;;;4997818;28;20038;-82
2022/12/26 08:43:19;;;;;;;20.98;11.82;;;8.30;99.90;;;;;;4995530;28;20030;-82
2022/12/26 08:45:45;;;;;;;16.55;11.30;;;8.40;99.90;;;;;;4987213;28;20745;-84
2022/12/26 08:48:11;;;;;;;16.35;11.05;;;8.40;99.90;;;;;;4997497;28;20044;-80
2022/12/26 08:50:36;;;;;;;14.15;10.18;;;8.50;99.90;;;;;;4982471;28;20492;-82
2022/12/26 08:53:02;;;;;;;15.40;10.23;;;8.50;99.90;;;;;;4997886;28;20042;-83
2022/12/26 08:55:27;;;;;;;18.23;10.10;;;8.60;99.90;;;;;;5001412;28;20092;-82
2022/12/26 08:57:53;;;;;;;14.48;10.07;;;8.60;99.90;;;;;;4999368;28;20038;-79
2022/12/26 09:00:22;;;;;;;13.05;9.95;;;8.60;99.90;;;;;;5002052;28;20038;-81
2022/12/26 09:02:48;;;;;;;13.50;10.27;;;8.70;99.90;;;;;;4986461;28;20092;-78
2022/12/26 09:05:13;;;;;;;14.55;9.95;;;8.70;99.90;;;;;;4999245;28;20093;-80
2022/12/26 09:07:39;;;;;;;14.30;10.10;;;8.70;99.90;;;;;;4986003;28;20042;-80
2022/12/26 09:10:05;;;;;;;14.32;10.13;;;8.70;99.90;;;;;;4984369;28;20456;-79
2022/12/26 09:12:30;;;;;;;19.13;10.50;;;8.70;99.90;;;;;;5001542;28;20045;-79
2022/12/26 09:14:56;;;;;;;12.57;10.68;;;8.80;99.90;;;;;;4999725;28;20118;-79
2022/12/26 09:17:22;;;;;;;16.50;10.88;;;8.80;99.90;;;;;;5001907;28;20034;-78
2022/12/26 09:19:47;;;;;;;15.57;10.48;;;8.80;99.90;;;;;;5000287;28;20415;-79
2022/12/26 09:24:57;;;;;;;13.13;9.77;;;8.70;99.90;;;;;;4998587;28;20052;-80
2022/12/26 09:27:22;;;;;;;14.23;9.10;;;8.80;99.90;;;;;;4998349;28;20034;-78
2022/12/26 09:29:48;;;;;;;15.05;9.90;;;8.80;99.90;;;;;;5015032;28;20041;-81
2022/12/26 09:32:13;;;;;;;14.35;8.80;;;8.90;99.90;;;;;;5000900;28;20490;-82
2022/12/26 09:34:39;;;;;;;11.38;7.47;;;8.90;99.90;;;;;;4998582;28;20041;-79
2022/12/26 09:37:04;;;;;;;9.32;7.07;;;8.90;99.90;;;;;;4978282;28;20061;-78
2022/12/26 09:39:30;;;;;;;8.48;6.68;;;8.90;99.90;;;;;;4996820;28;20115;-78
2022/12/26 09:42:19;;;;;;;11.50;7.03;;;9.00;99.90;;;;;;4995717;28;20046;-77
2022/12/26 09:44:54;;;;;;;9.57;7.45;;;8.90;99.90;;;;;;4992421;28;20037;-75
2022/12/26 09:47:51;;;;;;;9.70;6.35;;;9.00;99.90;;;;;;4980912;28;20480;-76
2022/12/26 09:50:28;;;;;;;8.07;5.80;;;9.10;99.90;;;;;;4990065;28;20060;-78
2022/12/26 09:53:04;;;;;;;8.48;5.47;;;9.10;99.90;;;;;;4997285;28;20057;-79
2022/12/26 09:55:41;;;;;;;9.68;5.85;;;9.10;99.90;;;;;;4980715;28;20508;-78
2022/12/26 09:58:12;;;;;;;9.63;5.30;;;9.00;99.90;;;;;;4999212;28;20041;-81
2022/12/26 10:00:55;;;;;;;13.30;4.28;;;9.00;99.90;;;;;;5001346;28;20504;-78
2022/12/26 10:03:22;;;;;;;14.23;4.15;;;8.80;99.90;;;;;;4987987;28;20037;-78
2022/12/26 10:06:02;;;;;;;10.63;3.53;;;8.70;99.90;;;;;;4978650;28;20551;-78
2022/12/26 10:08:48;;;;;;;13.95;3.20;;;8.50;99.90;;;;;;4981137;28;20084;-77
2022/12/26 10:11:40;;;;;;;11.70;2.78;;;8.30;99.90;;;;;;4996954;28;20034;-77
2022/12/26 10:14:19;;;;;;;13.70;2.58;;;8.10;99.90;;;;;;5012387;28;20041;-76
2022/12/26 10:16:57;;;;;;;9.85;2.08;;;7.90;99.90;;;;;;4994914;28;20525;-77
2022/12/26 10:20:03;;;;;;;9.90;3.13;;;7.80;99.90;;;;;;4989815;28;20056;-80
2022/12/26 10:23:06;;;;;;;8.00;2.88;;;7.60;99.90;;;;;;5010610;28;20488;-79
2022/12/26 10:25:41;;;;;;;10.80;2.33;;;7.50;99.90;;;;;;4976268;28;20042;-77
2022/12/26 10:28:30;;;;;;;11.52;1.92;;;7.40;99.90;;;;;;4980461;28;20045;-77
2022/12/26 10:30:59;;;;;;;12.40;2.50;;;7.40;99.90;;;;;;4991092;28;20054;-78
2022/12/26 10:34:18;;;;;;;9.55;2.05;;;7.40;99.90;;;;;;4995899;28;20045;-80
2022/12/26 10:36:56;;;;;;;9.02;2.13;;;7.40;99.90;;;;;;4916546;29;20564;-78
2022/12/26 10:39:44;;;;;;;5.97;1.42;;;7.40;99.90;;;;;;4993843;28;20088;-74
2022/12/26 10:42:31;;;;;;;9.75;2.03;;;7.50;99.90;;;;;;4987688;28;20141;-75
2022/12/26 10:44:57;;;;;;;4.40;1.33;;;7.70;99.90;;;;;;5010097;28;20393;-77
2022/12/26 10:47:28;;;;;;;11.35;1.45;;;7.80;99.90;;;;;;4994050;28;20070;-76
2022/12/26 10:49:53;;;;;;;7.75;1.75;;;7.80;99.90;;;;;;4977397;28;20048;-81
2022/12/26 10:52:28;;;;;;;8.05;1.48;;;7.80;99.90;;;;;;4995246;28;20038;-79
2022/12/26 10:54:58;;;;;;;10.18;2.20;;;7.70;99.90;;;;;;4995715;28;20052;-80
2022/12/26 10:57:27;;;;;;;5.20;1.70;;;7.70;99.90;;;;;;4994755;28;20400;-77
2022/12/26 10:59:54;;;;;;;6.93;1.58;;;7.70;99.90;;;;;;4989516;28;20061;-79
2022/12/26 11:02:27;;;;;;;11.50;1.98;;;7.60;99.90;;;;;;4995502;28;20042;-80
2022/12/26 11:05:05;;;;;;;9.07;1.50;;;7.50;99.90;;;;;;4980128;28;20088;-77
2022/12/26 11:07:53;;;;;;;9.45;1.45;;;7.50;99.90;;;;;;4996620;28;20049;-77
2022/12/26 11:10:22;;;;;;;8.57;1.48;;;7.50;99.90;;;;;;4995319;28;20053;-78
2022/12/26 11:12:51;;;;;;;6.90;1.40;;;7.50;99.90;;;;;;4997249;28;20096;-78
2022/12/26 11:15:27;;;;;;;5.30;1.45;;;7.40;99.90;;;;;;4993636;28;20042;-77
2022/12/26 11:17:54;;;;;;;8.25;1.65;;;7.40;99.90;;;;;;5014166;28;20053;-78
2022/12/26 11:20:22;;;;;;;7.32;1.60;;;7.40;99.90;;;;;;4980016;28;20443;-78
2022/12/26 11:22:49;;;;;;;10.05;1.48;;;7.50;99.90;;;;;;4979223;28;20041;-78
2022/12/26 11:25:21;;;;;;;7.22;1.48;;;7.50;99.90;;;;;;4997622;28;20428;-79
2022/12/26 11:27:52;;;;;;;;;;;7.50;99.90;;;;;;4997827;28;20045;-78
2022/12/26 11:30:31;;;;;;;9.23;1.90;;;7.40;99.90;;;;;;5013952;28;19955;-78
2022/12/26 11:33:08;;;;;;;6.78;1.58;;;7.50;99.90;;;;;;4994853;28;20503;-79
2022/12/26 11:35:36;;;;;;;7.05;1.65;;;7.40;99.90;;;;;;4996031;28;20682;-79
2022/12/26 11:38:12;;;;;;;11.10;2.25;;;7.40;99.90;;;;;;4980085;28;20064;-78
2022/12/26 11:41:30;;;;;;;7.28;1.52;;;7.40;99.90;;;;;;4997295;28;20049;-78
2022/12/26 11:43:31;;;;;;;;;;;7.40;99.90;;;;;;4997339;28;20419;-78
2022/12/26 11:45:57;;;;;;;6.10;1.48;;;7.30;99.90;;;;;;4994816;28;19996;-79
2022/12/26 11:48:25;;;;;;;10.07;1.77;;;7.40;99.90;;;;;;4997170;28;20125;-78
2022/12/26 11:50:51;;;;;;;6.85;1.33;;;7.30;99.90;;;;;;4997187;28;20064;-78
2022/12/26 11:53:20;;;;;;;9.98;2.03;;;7.20;99.90;;;;;;4979669;28;20080;-79
2022/12/26 11:56:01;;;;;;;8.75;2.38;;;7.10;99.90;;;;;;4997418;28;20404;-84
2022/12/26 11:58:29;;;;;;;7.65;1.80;;;7.00;99.90;;;;;;4979452;28;20034;-84
2022/12/26 12:00:58;;;;;;;10.13;1.73;;;7.00;99.90;;;;;;4986066;28;20093;-84
2022/12/26 12:03:29;;;;;;;9.00;1.77;;;7.20;99.90;;;;;;5000982;28;20038;-82
2022/12/26 12:05:55;;;;;;;8.77;1.75;;;7.40;99.90;;;;;;5019485;28;20073;-83
2022/12/26 12:08:51;;;;;;;11.77;1.95;;;7.50;99.90;;;;;;5000061;28;20038;-83
2022/12/26 12:11:26;;;;;;;6.55;1.73;;;7.70;99.90;;;;;;4992623;28;20037;-83
2022/12/26 12:13:52;;;;;;;8.38;2.10;;;7.80;99.90;;;;;;4997875;28;20069;-82
2022/12/26 12:16:30;;;;;;;19.10;2.38;;;7.80;99.90;;;;;;4978814;28;20040;-83
2022/12/26 12:19:22;;;;;;;17.17;2.35;;;7.80;99.90;;;;;;4982704;28;20077;-83
2022/12/26 12:22:11;;;;;;;11.43;2.60;;;7.70;99.90;;;;;;4999843;28;20042;-81
2022/12/26 12:24:52;;;;;;;12.55;2.90;;;7.50;99.90;;;;;;4984766;28;20481;-83
2022/12/26 12:27:40;;;;;;;7.15;1.73;;;7.40;99.90;;;;;;4984568;28;20481;-83
2022/12/26 12:30:19;;;;;;;12.85;2.65;;;7.30;99.90;;;;;;4976351;28;20042;-83
2022/12/26 12:32:47;;;;;;;11.88;2.53;;;7.20;99.90;;;;;;5000413;28;20037;-82
2022/12/26 12:35:30;;;;;;;8.60;1.83;;;7.10;99.90;;;;;;4980723;28;20042;-83
2022/12/26 12:38:23;;;;;;;10.02;1.98;;;7.00;99.90;;;;;;5003314;28;20492;-82
2022/12/26 12:41:04;;;;;;;11.70;2.45;;;7.00;99.90;;;;;;4979863;28;20520;-83
2022/12/26 12:43:41;;;;;;;11.00;1.92;;;7.00;99.90;;;;;;4978348;28;20037;-81
2022/12/26 12:46:35;;;;;;;9.68;1.80;;;6.90;99.90;;;;;;4993859;28;20072;-83
2022/12/26 12:49:34;;;;;;;12.68;2.33;;;6.90;99.90;;;;;;5010184;28;20073;-83
2022/12/26 12:52:31;;;;;;;10.10;2.05;;;6.80;99.90;;;;;;4972039;28;20049;-83
2022/12/26 12:55:19;;;;;;;13.07;2.40;;;6.80;99.90;;;;;;4980569;28;20408;-82
2022/12/26 12:57:54;;;;;;;9.48;1.77;;;6.70;99.90;;;;;;4988541;28;20157;-83
2022/12/26 13:00:27;;;;;;;11.38;2.00;;;6.70;99.90;;;;;;4979878;28;20088;-83
2022/12/26 13:03:11;;;;;;;;;;;6.60;99.90;;;;;;5000548;28;20037;-82
2022/12/26 13:06:06;;;;;;;11.88;2.17;;;6.50;99.90;;;;;;4974307;28;19921;-82
2022/12/26 13:08:44;;;;;;;9.63;1.80;;;6.40;99.90;;;;;;4984083;28;20049;-78
2022/12/26 13:11:19;;;;;;;13.30;2.30;;;6.30;99.90;;;;;;4997481;28;20041;-82
2022/12/26 13:13:51;;;;;;;11.20;1.98;;;6.20;99.90;;;;;;4977949;28;20038;-84
2022/12/26 13:16:21;;;;;;;10.35;2.13;;;6.10;99.90;;;;;;4978983;28;20077;-82
2022/12/26 13:18:54;;;;;;;10.15;2.17;;;6.00;99.90;;;;;;4980242;28;20045;-82
2022/12/26 13:21:21;;;;;;;8.07;1.90;;;6.00;99.90;;;;;;4997364;28;20098;-82
2022/12/26 13:26:47;;;;;;;12.20;2.13;;;5.90;99.90;;;;;;4994033;28;20097;-83
2022/12/26 13:29:23;;;;;;;17.73;2.42;;;6.00;99.90;;;;;;4996099;28;20511;-82
2022/12/26 13:31:49;;;;;;;11.93;2.13;;;6.00;99.90;;;;;;4977843;28;20077;-82
2022/12/26 13:34:17;;;;;;;9.55;1.92;;;6.00;99.90;;;;;;4980138;28;20116;-82
2022/12/26 13:36:46;;;;;;;9.27;2.25;;;6.00;99.90;;;;;;4997272;28;20049;-82
2022/12/26 13:39:14;;;;;;;14.48;2.45;;;6.00;99.90;;;;;;5001753;28;20045;-82
2022/12/26 13:45:47;;;;;;;11.70;2.50;;;6.00;99.90;;;;;;5012110;28;20072;-83
2022/12/26 13:48:15;;;;;;;9.98;2.10;;;5.90;99.90;;;;;;4969048;28;20037;-82
2022/12/26 13:50:49;;;;;;;7.93;2.25;;;5.90;99.90;;;;;;4981056;28;20042;-83
2022/12/26 13:53:24;;;;;;;10.25;1.73;;;5.90;99.90;;;;;;4977040;28;20088;-82
2022/12/26 13:55:56;;;;;;;8.90;3.03;;;5.90;99.90;;;;;;4995423;28;20073;-84
2022/12/26 13:58:24;;;;;;;12.60;2.08;;;5.90;99.90;;;;;;4977566;28;20030;-83
2022/12/26 14:00:54;;;;;;;9.88;2.60;;;5.90;99.90;;;;;;4996621;28;20492;-80
2022/12/26 14:03:45;;;;;;;15.63;3.95;;;5.80;99.90;;;;;;4980837;28;20068;-82
2022/12/26 14:06:21;;;;;;;12.02;3.53;;;5.80;99.90;;;;;;4981650;28;20030;-82
2022/12/26 14:08:56;;;;;;;12.57;3.83;;;5.80;99.90;;;;;;4973824;28;20095;-82
2022/12/26 14:12:07;;;;;;;15.70;4.47;;;5.70;99.90;;;;;;5006737;28;20101;-83
2022/12/26 14:14:54;;;;;;;13.50;3.60;;;5.70;99.90;;;;;;4977814;28;20033;-82
2022/12/26 14:17:51;;;;;;;7.97;3.33;;;5.70;99.90;;;;;;4981312;28;20037;-82
2022/12/26 14:20:35;;;;;;;13.52;3.95;;;5.70;99.90;;;;;;4975133;28;20042;-82
2022/12/26 14:23:27;;;;;;;9.05;3.05;;;5.70;99.90;;;;;;4981272;28;20049;-82
2022/12/26 14:26:05;;;;;;;12.77;3.17;;;5.70;99.90;;;;;;4995856;28;20043;-81
2022/12/26 14:29:10;;;;;;;10.60;2.72;;;5.60;99.90;;;;;;4981321;28;20120;-82
2022/12/26 14:31:43;;;;;;;9.98;2.28;;;5.60;99.90;;;;;;4978874;28;20034;-82
2022/12/26 14:34:18;;;;;;;7.97;2.20;;;5.60;99.90;;;;;;4987193;28;20065;-82
2022/12/26 14:36:51;;;;;;;10.18;1.85;;;5.50;99.90;;;;;;4996099;28;20389;-82
2022/12/26 14:39:41;;;;;;;9.23;2.40;;;5.50;99.90;;;;;;4980746;28;20041;-80
2022/12/26 14:45:32;;;;;;;13.88;2.13;;;5.50;99.90;;;;;;4983497;28;20124;-78
2022/12/26 14:47:58;;;;;;;13.60;2.13;;;5.40;99.90;;;;;;4981843;28;20046;-83
2022/12/26 14:50:44;;;;;;;8.63;1.88;;;5.40;99.90;;;;;;4979546;28;20172;-82
2022/12/26 14:53:27;;;;;;;12.18;2.50;;;5.30;99.90;;;;;;4994989;28;20029;-82
2022/12/26 14:56:31;;;;;;;12.30;2.33;;;5.20;99.90;;;;;;4977314;28;20034;-82
2022/12/26 14:59:33;;;;;;;12.73;2.22;;;5.10;99.90;;;;;;4977646;28;20099;-82
2022/12/26 15:02:33;;;;;;;8.32;2.17;;;5.10;99.90;;;;;;4995176;28;20102;-81
2022/12/26 15:05:19;;;;;;;8.50;1.83;;;5.00;99.90;;;;;;4978630;28;20030;-82
2022/12/26 15:08:22;;;;;;;14.93;2.58;;;4.90;99.90;;;;;;4980409;28;20415;-82
2022/12/26 15:11:03;;;;;;;8.75;2.35;;;4.90;99.90;;;;;;4992810;28;20053;-82
2022/12/26 15:13:49;;;;;;;10.27;2.30;;;4.80;99.90;;;;;;4979650;28;20049;-83
2022/12/26 15:16:27;;;;;;;10.48;2.25;;;4.80;99.90;;;;;;5013084;28;20485;-82
2022/12/26 15:19:28;;;;;;;11.27;2.13;;;4.80;99.90;;;;;;4996328;28;20042;-83
2022/12/26 15:22:31;;;;;;;12.93;2.63;;;4.70;99.90;;;;;;4980196;28;20042;-82
2022/12/26 15:25:31;;;;;;;13.20;2.40;;;4.70;99.90;;;;;;4995441;28;20034;-83